Time;durP1;ratioP1;P1;durP2;ratioP2;P2;SDS_P1;SDS_P2;PMS_P1;PMS_P2;Temp;Humidity;BMP_temperature;BMP_pressure;BME280_temperature;BME280_humidity;BME280_pressure;Samples;Min_cycle;Max_cycle;Signal;HPM_P1;HPM_P2
2024/05/08 00:00:49;;;;;;;8.00;2.50;;;25.60;99.90;;;;;;5381154;26;20000;-54
2024/05/08 00:03:14;;;;;;;5.82;2.45;;;25.60;99.90;;;;;;5380984;26;20000;-53
2024/05/08 00:05:41;;;;;;;4.93;2.60;;;25.60;99.90;;;;;;5382442;26;20008;-54
2024/05/08 00:08:08;;;;;;;5.95;2.03;;;25.60;99.90;;;;;;5382299;26;20081;-53
2024/05/08 00:10:34;;;;;;;5.30;2.45;;;25.60;99.90;;;;;;5380632;26;20077;-53
2024/05/08 00:13:00;;;;;;;5.15;2.00;;;25.50;99.90;;;;;;5381884;26;20011;-53
2024/05/08 00:15:26;;;;;;;6.28;2.22;;;25.60;99.90;;;;;;5380770;26;20030;-53
2024/05/08 00:17:52;;;;;;;8.63;3.00;;;25.60;99.90;;;;;;5380555;26;20336;-53
2024/05/08 00:20:18;;;;;;;5.28;2.67;;;25.60;99.90;;;;;;5382128;26;20456;-53
2024/05/08 00:22:43;;;;;;;4.07;2.33;;;25.60;99.90;;;;;;5382567;26;20026;-54
2024/05/08 00:25:09;;;;;;;4.95;2.95;;;25.60;99.90;;;;;;5382565;26;20005;-54
2024/05/08 00:27:35;;;;;;;7.53;2.95;;;25.50;99.90;;;;;;5382417;26;20395;-53
2024/05/08 00:30:01;;;;;;;5.63;2.45;;;25.50;99.90;;;;;;5382142;26;20019;-54
2024/05/08 00:32:26;;;;;;;6.22;2.58;;;25.50;99.90;;;;;;5382406;26;20004;-54
2024/05/08 00:34:52;;;;;;;4.45;2.33;;;25.50;99.90;;;;;;5382439;26;20000;-53
2024/05/08 00:37:18;;;;;;;5.53;2.63;;;25.50;99.90;;;;;;5351365;26;20014;-53
2024/05/08 00:39:44;;;;;;;6.47;2.42;;;25.50;99.90;;;;;;5382207;26;20128;-53
2024/05/08 00:42:11;;;;;;;5.20;2.40;;;25.50;99.90;;;;;;5382405;26;20012;-53
2024/05/08 00:44:37;;;;;;;4.63;2.50;;;25.50;99.90;;;;;;5382724;26;20048;-53
2024/05/08 00:47:03;;;;;;;7.35;2.67;;;25.50;99.90;;;;;;5381899;26;20077;-53
2024/05/08 00:49:29;;;;;;;7.20;2.90;;;25.50;99.90;;;;;;5381268;26;20015;-54
2024/05/08 00:51:55;;;;;;;4.68;2.72;;;25.50;99.90;;;;;;5380869;26;20022;-54
2024/05/08 00:54:22;;;;;;;4.70;2.20;;;25.50;99.90;;;;;;5366063;26;20312;-53
2024/05/08 00:56:49;;;;;;;4.97;2.70;;;25.50;99.90;;;;;;5378631;26;20123;-54
2024/05/08 00:59:15;;;;;;;;;;;25.50;99.90;;;;;;5379002;26;20026;-54
2024/05/08 01:01:41;;;;;;;7.90;2.72;;;25.50;99.90;;;;;;5393247;21;19933;-53
2024/05/08 01:04:07;;;;;;;6.70;2.60;;;25.50;99.90;;;;;;5377775;26;20444;-53
2024/05/08 01:06:33;;;;;;;6.60;2.67;;;25.50;99.90;;;;;;5378385;26;20004;-53
2024/05/08 01:08:59;;;;;;;5.47;3.33;;;25.50;99.90;;;;;;5378364;26;20008;-54
2024/05/08 01:11:25;;;;;;;5.67;2.57;;;25.50;99.90;;;;;;5380402;26;20004;-53
2024/05/08 01:13:51;;;;;;;6.40;3.00;;;25.40;99.90;;;;;;5380610;26;20396;-53
2024/05/08 01:16:17;;;;;;;5.20;2.58;;;25.40;99.90;;;;;;5380620;26;20000;-53
2024/05/08 01:18:42;;;;;;;4.75;2.67;;;25.40;99.90;;;;;;5380421;26;20081;-53
2024/05/08 01:21:08;;;;;;;4.85;2.55;;;25.40;99.90;;;;;;5380822;26;20004;-53
2024/05/08 01:23:34;;;;;;;5.32;3.00;;;25.40;99.90;;;;;;5380464;26;20004;-53
2024/05/08 01:26:00;;;;;;;7.05;2.88;;;25.40;99.90;;;;;;5380794;26;20099;-53
2024/05/08 01:28:26;;;;;;;5.68;3.20;;;25.40;99.90;;;;;;5380643;26;20004;-53
2024/05/08 01:30:53;;;;;;;6.20;2.75;;;25.40;99.90;;;;;;5379504;26;20021;-54
2024/05/08 01:33:18;;;;;;;6.90;2.78;;;25.40;99.90;;;;;;5375699;26;20019;-54
2024/05/08 01:35:45;;;;;;;5.40;2.75;;;25.40;99.90;;;;;;5381895;26;20441;-54
2024/05/08 01:38:11;;;;;;;5.75;2.58;;;25.40;99.90;;;;;;5381863;26;20010;-54
2024/05/08 01:40:38;;;;;;;6.10;2.85;;;25.40;99.90;;;;;;5381965;26;20007;-53
2024/05/08 01:43:04;;;;;;;7.63;3.13;;;25.40;99.90;;;;;;5381624;26;20000;-54
2024/05/08 01:45:30;;;;;;;10.63;3.35;;;25.40;99.90;;;;;;5381881;26;20003;-55
2024/05/08 01:47:56;;;;;;;5.68;2.72;;;25.30;99.90;;;;;;5381783;26;20459;-55
2024/05/08 01:50:22;;;;;;;5.75;2.90;;;25.40;99.90;;;;;;5381467;26;20463;-54
2024/05/08 01:52:48;;;;;;;6.00;2.78;;;25.40;99.90;;;;;;5381438;26;20000;-53
2024/05/08 01:55:14;;;;;;;6.45;3.05;;;25.40;99.90;;;;;;5381775;26;20000;-54
2024/05/08 01:57:39;;;;;;;8.07;2.97;;;25.30;99.90;;;;;;5381955;26;20040;-54
2024/05/08 02:02:51;;;;;;;6.00;3.05;;;25.30;99.90;;;;;;5344370;26;20040;-54
2024/05/08 02:05:17;;;;;;;7.35;2.88;;;25.30;99.90;;;;;;5346545;26;20004;-55
2024/05/08 02:07:43;;;;;;;5.35;2.75;;;25.30;99.90;;;;;;5346567;26;19997;-54
2024/05/08 02:10:09;;;;;;;10.43;2.75;;;25.30;99.90;;;;;;5345180;26;20765;-53
2024/05/08 02:12:34;;;;;;;4.72;2.78;;;25.30;99.90;;;;;;5346441;26;20441;-55
2024/05/08 02:15:00;;;;;;;5.60;3.03;;;25.30;99.90;;;;;;5345518;26;20134;-53
2024/05/08 02:17:26;;;;;;;4.45;2.50;;;25.30;99.90;;;;;;5315706;26;19993;-54
2024/05/08 02:19:52;;;;;;;4.88;2.65;;;25.30;99.90;;;;;;5315903;26;20433;-54
2024/05/08 02:22:17;;;;;;;5.90;2.60;;;25.30;99.90;;;;;;5346519;26;20003;-54
2024/05/08 02:24:44;;;;;;;4.57;2.30;;;25.30;99.90;;;;;;5346208;26;20063;-54
2024/05/08 02:27:10;;;;;;;4.20;2.28;;;25.30;99.90;;;;;;5346477;26;20003;-54
2024/05/08 02:29:35;;;;;;;5.28;2.70;;;25.30;99.90;;;;;;5346466;26;20438;-53
2024/05/08 02:32:01;;;;;;;4.10;2.28;;;25.30;99.90;;;;;;5346164;26;20001;-53
2024/05/08 02:34:27;;;;;;;5.60;2.40;;;25.20;99.90;;;;;;5346248;26;20004;-54
2024/05/08 02:36:53;;;;;;;3.20;2.45;;;25.20;99.90;;;;;;5346178;26;20004;-54
2024/05/08 02:39:19;;;;;;;4.25;2.25;;;25.20;99.90;;;;;;5346021;26;20003;-54
2024/05/08 02:41:44;;;;;;;8.07;3.20;;;25.20;99.90;;;;;;5346076;26;19993;-53
2024/05/08 02:44:10;;;;;;;5.18;2.83;;;25.20;99.90;;;;;;5287550;26;20008;-54
2024/05/08 02:46:36;;;;;;;5.82;2.35;;;25.20;99.90;;;;;;5346178;26;20341;-54
2024/05/08 02:49:02;;;;;;;4.88;2.60;;;25.20;99.90;;;;;;5345932;26;19997;-54
2024/05/08 02:51:27;;;;;;;5.90;2.47;;;25.20;99.90;;;;;;5346000;26;20078;-54
2024/05/08 02:53:53;;;;;;;3.50;1.92;;;25.20;99.90;;;;;;5345975;26;20008;-54
2024/05/08 02:56:19;;;;;;;5.88;2.67;;;25.20;99.90;;;;;;5345562;26;20008;-54
2024/05/08 02:58:45;;;;;;;5.13;2.50;;;25.20;99.90;;;;;;5345855;26;19997;-54
2024/05/08 03:01:11;;;;;;;5.43;2.55;;;25.20;99.90;;;;;;5346415;26;20037;-55
2024/05/08 03:03:36;;;;;;;5.57;2.33;;;25.20;99.90;;;;;;5345700;26;20008;-54
2024/05/08 03:06:03;;;;;;;5.40;2.47;;;25.20;99.90;;;;;;5345465;26;20003;-55
2024/05/08 03:08:28;;;;;;;5.43;2.17;;;25.20;99.90;;;;;;5345550;26;19993;-54
2024/05/08 03:10:54;;;;;;;4.82;2.08;;;25.10;99.90;;;;;;5345527;26;20004;-53
2024/05/08 03:13:20;;;;;;;4.32;2.20;;;25.10;99.90;;;;;;5345571;26;19996;-54
2024/05/08 03:15:45;;;;;;;5.40;2.47;;;25.20;99.90;;;;;;5345620;26;19997;-54
2024/05/08 03:18:11;;;;;;;5.93;2.40;;;25.10;99.90;;;;;;5345404;26;19997;-57
2024/05/08 03:20:37;;;;;;;5.75;2.40;;;25.10;99.90;;;;;;5345225;26;20007;-55
2024/05/08 03:23:03;;;;;;;3.80;2.38;;;25.10;99.90;;;;;;5345495;26;20004;-54
2024/05/08 03:25:29;;;;;;;4.97;2.40;;;25.10;99.90;;;;;;5345373;26;20004;-54
2024/05/08 03:27:55;;;;;;;4.40;2.50;;;25.10;99.90;;;;;;5347455;26;20066;-54
2024/05/08 03:30:21;;;;;;;6.70;3.22;;;25.10;99.90;;;;;;5348225;26;20005;-54
2024/05/08 03:32:46;;;;;;;4.97;2.40;;;25.10;99.90;;;;;;5348359;26;20007;-54
2024/05/08 03:35:12;;;;;;;2.55;1.90;;;25.10;99.90;;;;;;5348580;26;20007;-54
2024/05/08 03:37:40;;;;;;;6.30;2.45;;;25.10;99.90;;;;;;5348607;26;20012;-54
2024/05/08 03:40:07;;;;;;;3.15;2.05;;;25.10;99.90;;;;;;5348459;26;20000;-54
2024/05/08 03:42:32;;;;;;;4.70;2.38;;;25.10;99.90;;;;;;5348136;26;20003;-54
2024/05/08 03:44:58;;;;;;;4.32;2.53;;;25.10;99.90;;;;;;5348410;26;19997;-54
2024/05/08 03:47:24;;;;;;;4.20;2.63;;;25.10;99.90;;;;;;5348406;26;20070;-54
2024/05/08 03:49:49;;;;;;;5.47;2.15;;;25.00;99.90;;;;;;5348525;26;20001;-53
2024/05/08 03:52:15;;;;;;;4.85;2.13;;;25.10;99.90;;;;;;5348660;26;20429;-54
2024/05/08 03:54:41;;;;;;;6.00;2.42;;;25.00;99.90;;;;;;5313857;26;20405;-53
2024/05/08 03:57:08;;;;;;;4.13;2.30;;;25.00;99.90;;;;;;5342518;26;20372;-53
2024/05/08 03:59:34;;;;;;;4.97;1.80;;;25.00;99.90;;;;;;5342559;26;19997;-53
2024/05/08 04:02:00;;;;;;;5.28;2.10;;;25.00;99.90;;;;;;5343981;26;20342;-53
2024/05/08 04:04:25;;;;;;;4.68;2.45;;;25.00;99.90;;;;;;5344623;26;20012;-54
2024/05/08 04:06:51;;;;;;;4.03;2.45;;;25.00;99.90;;;;;;5344446;26;20000;-54
2024/05/08 04:09:17;;;;;;;5.07;2.35;;;25.00;99.90;;;;;;5346806;26;19997;-53
2024/05/08 04:11:43;;;;;;;4.32;2.45;;;25.00;99.90;;;;;;5348299;26;20008;-53
2024/05/08 04:14:09;;;;;;;4.13;2.60;;;25.00;99.90;;;;;;5347919;26;20001;-54
2024/05/08 04:16:35;;;;;;;2.95;2.03;;;25.00;99.90;;;;;;5346228;26;20012;-53
2024/05/08 04:19:03;;;;;;;5.22;2.58;;;25.00;99.90;;;;;;5347953;26;19997;-54
2024/05/08 04:21:29;;;;;;;3.60;2.38;;;25.00;99.90;;;;;;5347792;26;20001;-53
2024/05/08 04:23:55;;;;;;;5.38;2.60;;;25.00;99.90;;;;;;5347878;26;20001;-53
2024/05/08 04:26:21;;;;;;;6.38;2.30;;;25.00;99.90;;;;;;5345934;26;20096;-53
2024/05/08 04:28:47;;;;;;;4.13;2.58;;;25.00;99.90;;;;;;5348087;26;20011;-54
2024/05/08 04:31:17;;;;;;;4.38;2.40;;;25.00;99.90;;;;;;5347665;26;20348;-54
2024/05/08 04:33:43;;;;;;;4.20;2.38;;;25.00;99.90;;;;;;5347748;26;20078;-53
2024/05/08 04:36:09;;;;;;;4.53;2.25;;;24.90;99.90;;;;;;5348017;26;20453;-53
2024/05/08 04:38:35;;;;;;;4.47;2.20;;;25.00;99.90;;;;;;5344541;26;20362;-53
2024/05/08 04:41:01;;;;;;;4.57;2.22;;;25.00;99.90;;;;;;5347564;26;20001;-54
2024/05/08 04:43:30;;;;;;;3.72;2.35;;;24.90;99.90;;;;;;5347763;26;20011;-54
2024/05/08 04:45:56;;;;;;;3.55;2.28;;;24.90;99.90;;;;;;5347695;26;20108;-54
2024/05/08 04:48:22;;;;;;;4.00;2.47;;;24.90;99.90;;;;;;5347788;26;20029;-53
2024/05/08 04:50:48;;;;;;;4.03;2.35;;;24.90;99.90;;;;;;5347675;26;20016;-54
2024/05/08 04:53:13;;;;;;;5.28;2.88;;;24.90;99.90;;;;;;5347459;26;20012;-54
2024/05/08 04:55:39;;;;;;;4.57;2.38;;;24.90;99.90;;;;;;5347564;26;20371;-54
2024/05/08 04:58:06;;;;;;;4.15;2.15;;;24.90;99.90;;;;;;5347329;26;19997;-55
2024/05/08 05:00:31;;;;;;;6.43;2.67;;;24.90;99.90;;;;;;5346941;26;20009;-54
2024/05/08 05:02:57;;;;;;;4.15;2.50;;;24.80;99.90;;;;;;5347667;26;20008;-54
2024/05/08 05:05:23;;;;;;;6.25;3.15;;;24.90;99.90;;;;;;5347480;26;20069;-54
2024/05/08 05:07:49;;;;;;;5.70;2.83;;;24.90;99.90;;;;;;5347520;26;20016;-54
2024/05/08 05:10:14;;;;;;;5.78;2.35;;;24.90;99.90;;;;;;5347405;26;20429;-54
2024/05/08 05:12:45;;;;;;;5.47;2.50;;;24.90;99.90;;;;;;5345414;26;20357;-54
2024/05/08 05:15:11;;;;;;;7.32;2.42;;;24.80;99.90;;;;;;5345508;26;19997;-54
2024/05/08 05:17:38;;;;;;;5.70;2.08;;;24.90;99.90;;;;;;5347083;26;20012;-54
2024/05/08 05:20:04;;;;;;;5.63;2.47;;;24.80;99.90;;;;;;5346955;26;20009;-54
2024/05/08 05:22:30;;;;;;;4.60;2.53;;;24.80;99.90;;;;;;5346880;26;20075;-54
2024/05/08 05:24:56;;;;;;;4.50;2.22;;;24.80;99.90;;;;;;5346984;26;20001;-54
2024/05/08 05:27:22;;;;;;;4.90;2.30;;;24.80;99.90;;;;;;5347223;26;19997;-54
2024/05/08 05:29:47;;;;;;;5.95;2.05;;;24.80;99.90;;;;;;5346879;26;19996;-54
2024/05/08 05:34:58;;;;;;;4.53;2.75;;;24.80;99.90;;;;;;5347123;26;20012;-54
2024/05/08 05:37:23;;;;;;;4.00;2.28;;;24.80;99.90;;;;;;5347115;26;20001;-55
2024/05/08 05:39:49;;;;;;;3.47;2.10;;;24.80;99.90;;;;;;5316586;26;20001;-54
2024/05/08 05:47:43;;;;;;;5.18;1.92;;;24.80;99.90;;;;;;5346906;26;20037;-54
2024/05/08 05:50:09;;;;;;;4.40;2.10;;;24.70;99.90;;;;;;5346123;26;20001;-54
2024/05/08 05:52:35;;;;;;;2.65;1.83;;;24.80;99.90;;;;;;5346569;26;20441;-54
2024/05/08 05:55:01;;;;;;;3.72;2.33;;;24.70;99.90;;;;;;5346590;26;19997;-54
2024/05/08 05:57:27;;;;;;;3.38;2.08;;;24.70;99.90;;;;;;5346611;26;20104;-54
2024/05/08 05:59:52;;;;;;;2.78;1.90;;;24.70;99.90;;;;;;5346659;26;20100;-54
2024/05/08 06:02:18;;;;;;;2.70;1.67;;;24.70;99.90;;;;;;5346420;26;20360;-54
2024/05/08 06:04:44;;;;;;;5.13;2.65;;;24.70;99.90;;;;;;5346404;26;20333;-54
2024/05/08 06:07:10;;;;;;;4.25;1.90;;;24.70;99.90;;;;;;5344746;26;20001;-54
2024/05/08 06:09:36;;;;;;;3.03;2.10;;;24.70;99.90;;;;;;5346649;26;19997;-54
2024/05/08 06:12:02;;;;;;;4.03;2.00;;;24.70;99.90;;;;;;5346572;26;20012;-54
2024/05/08 06:14:28;;;;;;;4.33;2.43;;;24.70;99.90;;;;;;5344592;26;20016;-54
2024/05/08 06:16:54;;;;;;;3.85;1.98;;;24.70;99.90;;;;;;5346738;26;20005;-54
2024/05/08 06:19:20;;;;;;;4.13;2.20;;;24.70;99.90;;;;;;5346127;26;20012;-54
2024/05/08 06:21:45;;;;;;;4.47;1.73;;;24.70;99.90;;;;;;5344607;26;20015;-54
2024/05/08 06:24:11;;;;;;;3.22;1.95;;;24.70;99.90;;;;;;5346328;26;19997;-54
2024/05/08 06:26:41;;;;;;;2.88;1.80;;;24.70;99.90;;;;;;5346190;26;19997;-55
2024/05/08 06:29:07;;;;;;;2.92;1.70;;;24.70;99.90;;;;;;5346207;26;20012;-54
2024/05/08 06:31:33;;;;;;;3.47;1.90;;;24.70;99.90;;;;;;5346138;26;20015;-55
2024/05/08 06:33:59;;;;;;;4.57;2.15;;;24.70;99.90;;;;;;5346192;26;20016;-54
2024/05/08 06:36:24;;;;;;;3.85;1.90;;;24.70;99.90;;;;;;5346383;26;19997;-52
2024/05/08 06:38:50;;;;;;;2.70;2.05;;;24.60;99.90;;;;;;5346265;26;20457;-52
2024/05/08 06:41:18;;;;;;;3.05;1.80;;;24.70;99.90;;;;;;5345801;26;20352;-53
2024/05/08 06:43:44;;;;;;;4.22;1.85;;;24.60;99.90;;;;;;5315313;26;20429;-52
2024/05/08 06:46:10;;;;;;;3.55;1.55;;;24.70;99.90;;;;;;5345817;26;20011;-53
2024/05/08 06:48:35;;;;;;;3.65;1.95;;;24.70;99.90;;;;;;5345852;26;20093;-53
2024/05/08 06:51:01;;;;;;;3.20;1.60;;;24.60;99.90;;;;;;5345850;26;20005;-53
2024/05/08 06:53:27;;;;;;;3.03;1.75;;;24.60;99.90;;;;;;5346097;26;20000;-53
2024/05/08 06:55:53;;;;;;;2.80;1.90;;;24.60;99.90;;;;;;5345967;26;20011;-53
2024/05/08 06:58:19;;;;;;;2.88;1.83;;;24.60;99.90;;;;;;5345709;26;20011;-53
2024/05/08 07:00:44;;;;;;;3.15;1.73;;;24.60;99.90;;;;;;5345219;26;20070;-53
2024/05/08 07:03:14;;;;;;;2.38;1.38;;;24.60;99.90;;;;;;5344804;26;20001;-53
2024/05/08 07:05:40;;;;;;;4.85;1.92;;;24.60;99.90;;;;;;5345510;26;20001;-54
2024/05/08 07:08:06;;;;;;;2.72;2.13;;;24.60;99.90;;;;;;5345427;26;20011;-53
2024/05/08 07:10:32;;;;;;;3.00;2.05;;;24.60;99.90;;;;;;5345381;26;20361;-53
2024/05/08 07:12:59;;;;;;;2.92;1.95;;;24.60;99.90;;;;;;5345796;26;20089;-53
2024/05/08 07:15:26;;;;;;;3.42;1.80;;;24.60;99.90;;;;;;5345938;26;20001;-53
2024/05/08 07:17:52;;;;;;;5.75;1.77;;;24.60;99.90;;;;;;5345360;26;20004;-53
2024/05/08 07:20:17;;;;;;;3.70;2.15;;;24.60;99.90;;;;;;5345162;26;20015;-56
2024/05/08 07:22:44;;;;;;;5.20;2.58;;;24.60;99.90;;;;;;5345226;26;20102;-54
2024/05/08 07:25:10;;;;;;;3.35;1.88;;;24.60;99.90;;;;;;5345703;26;20001;-54
2024/05/08 07:27:35;;;;;;;2.05;1.80;;;24.60;99.90;;;;;;5314844;26;20456;-54
2024/05/08 07:30:01;;;;;;;4.50;2.13;;;24.60;99.90;;;;;;5345266;26;19997;-54
2024/05/08 07:32:27;;;;;;;2.60;1.92;;;24.60;99.90;;;;;;5345464;26;20001;-54
2024/05/08 07:34:53;;;;;;;3.58;2.33;;;24.60;99.90;;;;;;5345434;26;20070;-54
2024/05/08 07:37:18;;;;;;;3.92;2.30;;;24.60;99.90;;;;;;5345198;26;20075;-54
2024/05/08 07:39:44;;;;;;;4.00;1.95;;;24.60;99.90;;;;;;5344974;26;20008;-54
2024/05/08 07:42:11;;;;;;;3.67;2.15;;;24.60;99.90;;;;;;5343341;26;20016;-54
2024/05/08 07:44:37;;;;;;;5.07;2.72;;;24.60;99.90;;;;;;5336492;26;20012;-54
2024/05/08 07:47:02;;;;;;;4.57;2.40;;;24.60;99.90;;;;;;5341408;26;19997;-53
2024/05/08 07:49:28;;;;;;;2.83;2.00;;;24.60;99.90;;;;;;5341637;26;20087;-54
2024/05/08 07:51:55;;;;;;;2.90;2.15;;;24.70;99.90;;;;;;5341177;26;19989;-54
2024/05/08 07:54:21;;;;;;;3.63;2.10;;;24.60;99.90;;;;;;5341456;26;19993;-54
2024/05/08 07:56:47;;;;;;;3.75;2.33;;;24.60;99.90;;;;;;5341219;26;19997;-54
2024/05/08 07:59:12;;;;;;;4.00;2.45;;;24.60;99.90;;;;;;5341265;26;19997;-54
2024/05/08 08:01:38;;;;;;;4.10;2.33;;;24.70;99.90;;;;;;5344451;26;20069;-54
2024/05/08 08:04:04;;;;;;;4.68;2.00;;;24.60;99.90;;;;;;5344548;26;20425;-54
2024/05/08 08:06:30;;;;;;;4.43;2.38;;;24.60;99.90;;;;;;5344748;26;19997;-54
2024/05/08 08:08:56;;;;;;;4.40;2.30;;;24.60;99.90;;;;;;5344786;26;20066;-54
2024/05/08 08:11:22;;;;;;;3.50;2.30;;;24.60;99.90;;;;;;5344672;26;20001;-54
2024/05/08 08:13:48;;;;;;;3.33;2.33;;;24.70;99.90;;;;;;5346686;26;20008;-54
2024/05/08 08:16:14;;;;;;;3.58;2.10;;;24.70;99.90;;;;;;5347809;26;20005;-54
2024/05/08 08:18:39;;;;;;;4.10;2.50;;;24.70;99.90;;;;;;5347976;26;19993;-54
2024/05/08 08:21:05;;;;;;;6.80;2.47;;;24.70;99.90;;;;;;5347688;26;20012;-54
2024/05/08 08:23:31;;;;;;;5.28;3.08;;;24.70;99.90;;;;;;5347918;26;20016;-54
2024/05/08 08:25:57;;;;;;;4.28;2.20;;;24.60;99.90;;;;;;5347992;26;19997;-54
2024/05/08 08:28:23;;;;;;;3.92;2.53;;;24.70;99.90;;;;;;5347719;26;19997;-54
2024/05/08 08:30:48;;;;;;;4.63;3.13;;;24.70;99.90;;;;;;5347517;26;19993;-54
2024/05/08 08:33:14;;;;;;;4.80;2.38;;;24.70;99.90;;;;;;5317472;26;19993;-54
2024/05/08 08:35:40;;;;;;;3.35;2.30;;;24.70;99.90;;;;;;5347761;26;20075;-54
2024/05/08 08:38:06;;;;;;;4.07;2.17;;;24.70;99.90;;;;;;5347729;26;20009;-55
2024/05/08 08:40:33;;;;;;;4.55;2.35;;;24.70;99.90;;;;;;5347659;26;20388;-54
2024/05/08 08:43:02;;;;;;;3.83;2.23;;;24.70;99.90;;;;;;5348393;26;20029;-54
2024/05/08 08:45:32;;;;;;;5.82;2.97;;;24.70;99.90;;;;;;5347788;26;20008;-54
2024/05/08 08:47:59;;;;;;;4.18;2.10;;;24.70;99.90;;;;;;5347705;26;20028;-54
2024/05/08 08:50:25;;;;;;;3.83;2.22;;;24.70;99.90;;;;;;5347471;26;20007;-54
2024/05/08 08:52:53;;;;;;;5.32;2.70;;;24.70;99.90;;;;;;5347556;26;19992;-53
2024/05/08 08:55:19;;;;;;;4.20;2.58;;;24.70;99.90;;;;;;5347560;26;20067;-54
2024/05/08 08:57:48;;;;;;;4.45;2.42;;;24.70;99.90;;;;;;5345360;26;20008;-54
2024/05/08 09:00:18;;;;;;;3.92;2.40;;;24.70;99.90;;;;;;5347446;26;19993;-54
2024/05/08 09:02:55;;;;;;;3.55;2.20;;;24.70;99.90;;;;;;5347621;26;20029;-54
2024/05/08 09:05:21;;;;;;;5.90;2.90;;;24.70;99.90;;;;;;5347393;26;19993;-54
2024/05/08 09:07:47;;;;;;;4.65;2.38;;;24.70;99.90;;;;;;5347251;26;20515;-54
2024/05/08 09:10:14;;;;;;;3.88;2.75;;;24.70;99.90;;;;;;5346977;26;20445;-54
2024/05/08 09:12:40;;;;;;;4.63;2.53;;;24.70;99.90;;;;;;5316717;26;19997;-54
2024/05/08 09:15:07;;;;;;;4.13;2.33;;;24.70;99.90;;;;;;5347290;26;20004;-53
2024/05/08 09:17:33;;;;;;;4.03;2.60;;;24.70;99.90;;;;;;5347388;26;20004;-54
2024/05/08 09:19:59;;;;;;;7.85;3.13;;;24.70;99.90;;;;;;5316501;26;19997;-54
2024/05/08 09:22:28;;;;;;;4.93;2.90;;;24.80;99.90;;;;;;5346935;26;20001;-54
2024/05/08 09:24:54;;;;;;;5.78;2.83;;;24.70;99.90;;;;;;5346331;26;20007;-54
2024/05/08 09:27:20;;;;;;;5.80;2.95;;;24.80;99.90;;;;;;5347301;26;20000;-54
2024/05/08 09:29:46;;;;;;;4.93;3.10;;;24.80;99.90;;;;;;5316595;26;20001;-54
2024/05/08 09:32:12;;;;;;;5.32;2.35;;;24.80;99.90;;;;;;5346527;26;20090;-54
2024/05/08 09:34:41;;;;;;;5.20;2.45;;;24.80;99.90;;;;;;5346544;26;20015;-54
2024/05/08 09:37:07;;;;;;;5.28;2.92;;;24.80;99.90;;;;;;5346585;26;20001;-54
2024/05/08 09:39:33;;;;;;;6.20;2.92;;;24.80;99.90;;;;;;5346865;26;20001;-54
2024/05/08 09:41:59;;;;;;;10.23;3.10;;;24.80;99.90;;;;;;5316225;26;20033;-56
2024/05/08 09:44:25;;;;;;;7.32;2.90;;;24.80;99.90;;;;;;5345961;26;20012;-54
2024/05/08 09:46:58;;;;;;;9.43;2.70;;;24.90;99.90;;;;;;5346598;26;20012;-54
2024/05/08 09:49:30;;;;;;;7.00;3.22;;;24.80;99.90;;;;;;5355960;26;20019;-55
2024/05/08 09:52:12;;;;;;;6.47;2.90;;;24.80;99.90;;;;;;5364786;26;20011;-56
2024/05/08 09:54:45;;;;;;;9.23;3.25;;;24.80;99.90;;;;;;5356948;26;20005;-55
2024/05/08 09:57:13;;;;;;;6.88;2.90;;;24.90;99.90;;;;;;5361147;26;20073;-54
2024/05/08 09:59:39;;;;;;;6.78;2.50;;;24.90;99.90;;;;;;5364520;26;20032;-55
2024/05/08 10:02:06;;;;;;;7.43;2.40;;;24.90;99.90;;;;;;5363080;26;20453;-55
2024/05/08 10:04:32;;;;;;;5.40;2.50;;;24.90;99.90;;;;;;5360443;26;20020;-54
2024/05/08 10:06:59;;;;;;;6.57;2.38;;;24.90;99.90;;;;;;5364386;26;20089;-54
2024/05/08 10:09:26;;;;;;;5.47;2.38;;;24.90;99.90;;;;;;5361311;26;20441;-54
2024/05/08 10:12:19;;;;;;;5.05;2.22;;;24.90;99.90;;;;;;5360582;26;20009;-55
2024/05/08 10:14:45;;;;;;;7.38;2.53;;;24.90;99.90;;;;;;5355377;26;20004;-55
2024/05/08 10:17:20;;;;;;;4.47;2.42;;;24.90;99.90;;;;;;5355297;26;20337;-55
2024/05/08 10:19:54;;;;;;;6.57;2.40;;;24.90;99.90;;;;;;5345058;26;20025;-53
2024/05/08 10:22:32;;;;;;;5.57;2.83;;;24.90;99.90;;;;;;5341157;26;20016;-52
2024/05/08 10:25:16;;;;;;;6.07;2.70;;;24.90;99.90;;;;;;5350136;26;20049;-54
2024/05/08 10:27:49;;;;;;;5.15;2.05;;;24.90;99.90;;;;;;5344254;26;20001;-54
2024/05/08 10:30:19;;;;;;;5.68;1.90;;;24.90;99.90;;;;;;5314729;26;20071;-53
2024/05/08 10:32:45;;;;;;;5.32;2.28;;;24.90;99.90;;;;;;5345135;26;20004;-53
2024/05/08 10:35:14;;;;;;;5.43;1.92;;;24.90;99.90;;;;;;5345551;26;20001;-54
2024/05/08 10:37:41;;;;;;;9.38;2.25;;;24.90;99.90;;;;;;5314447;26;20436;-54
2024/05/08 10:40:07;;;;;;;6.43;2.65;;;25.00;99.90;;;;;;5345355;26;20012;-52
2024/05/08 10:42:35;;;;;;;6.85;2.33;;;25.00;99.90;;;;;;5344976;26;20005;-52
2024/05/08 10:45:02;;;;;;;4.60;1.77;;;25.00;99.90;;;;;;5344784;26;20449;-53
2024/05/08 10:47:27;;;;;;;4.78;2.10;;;25.00;99.90;;;;;;5345037;26;20001;-53
2024/05/08 10:49:55;;;;;;;5.78;2.80;;;25.00;99.90;;;;;;5345027;26;20001;-53
2024/05/08 10:52:22;;;;;;;6.57;1.90;;;25.00;99.90;;;;;;5345188;26;20102;-54
2024/05/08 10:54:49;;;;;;;8.07;2.35;;;25.00;99.90;;;;;;5314750;26;20404;-55
2024/05/08 10:57:15;;;;;;;6.47;2.50;;;25.10;99.90;;;;;;5344530;26;20011;-54
2024/05/08 10:59:55;;;;;;;5.55;1.88;;;25.10;99.90;;;;;;5344979;26;20017;-55
2024/05/08 11:02:29;;;;;;;7.10;2.35;;;25.10;99.90;;;;;;5345066;26;20020;-54
2024/05/08 11:05:09;;;;;;;9.02;1.77;;;25.10;99.90;;;;;;5345351;26;20086;-55
2024/05/08 11:07:46;;;;;;;6.18;1.45;;;25.20;99.90;;;;;;5344715;26;20298;-55
2024/05/08 11:10:13;;;;;;;7.40;1.65;;;25.10;99.90;;;;;;5344558;26;20083;-55
2024/05/08 11:12:43;;;;;;;6.13;1.60;;;25.10;99.90;;;;;;5345106;26;20016;-55
2024/05/08 11:15:09;;;;;;;11.70;1.85;;;25.20;99.90;;;;;;5344994;26;20001;-55
2024/05/08 11:17:35;;;;;;;7.22;1.67;;;25.20;99.90;;;;;;5345136;26;20004;-61
2024/05/08 11:20:01;;;;;;;5.00;1.40;;;25.10;99.90;;;;;;5343059;26;20013;-55
2024/05/08 11:22:27;;;;;;;5.95;1.92;;;25.10;99.90;;;;;;5344698;26;20452;-55
2024/05/08 11:24:53;;;;;;;5.47;1.58;;;25.10;99.90;;;;;;5344811;26;20079;-55
2024/05/08 11:27:27;;;;;;;8.43;1.60;;;25.10;99.90;;;;;;5314246;26;20078;-55
2024/05/08 11:29:53;;;;;;;5.47;1.40;;;25.20;99.90;;;;;;5344854;26;20004;-55
2024/05/08 11:32:19;;;;;;;10.48;2.05;;;25.20;99.90;;;;;;5313749;26;20020;-56
2024/05/08 11:34:46;;;;;;;6.75;1.95;;;25.10;99.90;;;;;;5344904;26;20074;-55
2024/05/08 11:37:12;;;;;;;8.47;2.30;;;25.10;99.90;;;;;;5314377;26;20452;-56
2024/05/08 11:39:38;;;;;;;4.53;1.95;;;25.10;99.90;;;;;;5344613;26;20001;-57
2024/05/08 11:42:04;;;;;;;9.15;1.90;;;25.20;99.90;;;;;;5344838;26;20000;-55
2024/05/08 11:44:30;;;;;;;6.82;1.60;;;25.20;99.90;;;;;;5344643;26;20020;-55
2024/05/08 11:46:57;;;;;;;7.80;1.33;;;25.20;99.90;;;;;;5344640;26;20005;-56
2024/05/08 11:49:23;;;;;;;8.55;1.90;;;25.20;99.90;;;;;;5347408;26;20070;-55
2024/05/08 11:51:49;;;;;;;5.78;1.40;;;25.20;99.90;;;;;;5317567;26;20001;-52
2024/05/08 11:54:15;;;;;;;6.38;1.00;;;25.20;99.90;;;;;;5347661;26;20001;-53
2024/05/08 11:56:41;;;;;;;8.52;1.63;;;25.20;99.90;;;;;;5347728;26;20019;-53
2024/05/08 11:59:07;;;;;;;6.00;1.40;;;25.20;99.90;;;;;;5347552;26;20015;-53
2024/05/08 12:01:33;;;;;;;5.75;1.83;;;25.30;99.90;;;;;;5347035;26;20013;-54
2024/05/08 12:03:59;;;;;;;9.75;1.48;;;25.30;99.90;;;;;;5346554;26;20079;-54
2024/05/08 12:06:24;;;;;;;6.70;1.40;;;25.30;99.90;;;;;;5347531;26;20016;-54
2024/05/08 12:08:50;;;;;;;6.28;1.30;;;25.30;99.90;;;;;;5347816;26;20001;-54
2024/05/08 12:11:16;;;;;;;8.55;1.30;;;25.30;99.90;;;;;;5347344;26;20083;-54
2024/05/08 12:13:42;;;;;;;8.15;1.25;;;25.20;99.90;;;;;;5347597;26;20074;-54
2024/05/08 12:16:07;;;;;;;8.38;1.35;;;25.20;99.90;;;;;;5287755;26;20005;-53
2024/05/08 12:18:33;;;;;;;7.45;1.65;;;25.30;99.90;;;;;;5346793;26;20136;-52
2024/05/08 12:20:59;;;;;;;8.80;1.50;;;25.30;99.90;;;;;;5346915;26;20078;-55
2024/05/08 12:23:25;;;;;;;7.22;1.58;;;25.30;99.90;;;;;;5347190;26;20016;-53
2024/05/08 12:25:51;;;;;;;9.20;2.00;;;25.30;99.90;;;;;;5346749;26;20020;-54
2024/05/08 12:28:17;;;;;;;8.77;1.98;;;25.30;99.90;;;;;;5346799;26;20020;-54
2024/05/08 12:30:44;;;;;;;8.48;1.80;;;25.30;99.90;;;;;;5316202;26;20005;-54
2024/05/08 12:33:10;;;;;;;5.78;2.28;;;25.30;99.90;;;;;;5346509;26;20432;-54
2024/05/08 12:35:35;;;;;;;6.32;1.60;;;25.30;99.90;;;;;;5353114;26;20015;-54
2024/05/08 12:38:01;;;;;;;4.75;1.30;;;25.30;99.90;;;;;;5379467;26;20043;-55
2024/05/08 12:40:30;;;;;;;7.50;1.60;;;25.30;99.90;;;;;;5362892;26;20005;-55
2024/05/08 12:42:57;;;;;;;9.70;1.88;;;25.30;99.90;;;;;;5317527;26;20009;-55
2024/05/08 12:45:23;;;;;;;6.18;1.27;;;25.30;99.90;;;;;;5346868;26;20041;-55
2024/05/08 12:47:48;;;;;;;13.05;2.13;;;25.30;99.90;;;;;;5351257;26;20013;-55
2024/05/08 12:50:18;;;;;;;10.40;2.25;;;25.30;99.90;;;;;;5380621;26;20461;-54
2024/05/08 12:52:44;;;;;;;8.02;2.30;;;25.30;99.90;;;;;;5359196;26;20648;-57
2024/05/08 12:55:13;;;;;;;7.15;1.90;;;25.40;99.90;;;;;;5347830;26;20327;-57